createdAt,value
2022-09-30T00:01:44.855Z,5.73
2022-09-30T00:04:18.439Z,13.20
2022-09-30T00:06:47.356Z,32.77
2022-09-30T00:09:16.298Z,21.00
2022-09-30T00:11:45.684Z,16.83
2022-09-30T00:14:18.497Z,14.27
2022-09-30T00:16:47.828Z,15.10
2022-09-30T00:19:17.808Z,11.50
2022-09-30T00:21:46.086Z,6.90
2022-09-30T00:24:14.413Z,5.50
2022-09-30T00:26:42.599Z,7.53
2022-09-30T00:29:12.182Z,7.67
2022-09-30T00:31:40.894Z,8.00
2022-09-30T00:34:09.401Z,7.47
2022-09-30T00:36:44.424Z,8.57
2022-09-30T00:39:16.079Z,11.17
2022-09-30T00:41:44.842Z,6.63
2022-09-30T00:44:52.667Z,11.37
2022-09-30T00:47:46.979Z,16.60
2022-09-30T00:50:33.875Z,13.17
2022-09-30T00:53:10.789Z,7.73
2022-09-30T00:55:47.299Z,6.50
2022-09-30T00:58:20.595Z,5.47
2022-09-30T01:00:48.785Z,9.90
2022-09-30T01:03:16.935Z,11.30
2022-09-30T01:05:45.154Z,8.43
2022-09-30T01:08:14.804Z,10.03
2022-09-30T01:10:42.839Z,9.43
2022-09-30T01:13:11.753Z,12.27
2022-09-30T01:16:33.071Z,10.00
2022-09-30T01:19:25.416Z,5.50
2022-09-30T01:22:12.057Z,7.13
2022-09-30T01:28:47.118Z,9.33
2022-09-30T01:31:42.990Z,8.13
2022-09-30T01:34:25.134Z,6.13
2022-09-30T01:37:10.605Z,7.73
2022-09-30T01:39:50.035Z,6.30
2022-09-30T01:42:28.427Z,6.23
2022-09-30T01:45:06.213Z,8.37
2022-09-30T01:47:44.612Z,8.67
2022-09-30T01:50:21.125Z,12.40
2022-09-30T01:52:57.170Z,8.70
2022-09-30T01:55:33.672Z,7.97
2022-09-30T01:58:10.246Z,6.53
2022-09-30T02:00:42.105Z,6.07
2022-09-30T02:03:17.734Z,7.63
2022-09-30T02:05:53.757Z,5.43
2022-09-30T02:08:29.755Z,6.50
2022-09-30T02:11:03.361Z,4.00
2022-09-30T02:13:39.753Z,5.20
2022-09-30T02:16:14.067Z,5.20
2022-09-30T02:18:48.095Z,4.73
2022-09-30T02:21:23.346Z,5.63
2022-09-30T02:24:00.113Z,9.43
2022-09-30T02:26:33.760Z,4.97
2022-09-30T02:29:06.840Z,5.67
2022-09-30T02:31:41.091Z,9.43
2022-09-30T02:34:15.432Z,9.00
2022-09-30T02:36:49.742Z,6.83
2022-09-30T02:39:26.558Z,7.67
2022-09-30T02:42:03.352Z,7.27
2022-09-30T02:44:32.599Z,8.93
2022-09-30T02:47:13.898Z,5.70
2022-09-30T02:49:50.590Z,5.97
2022-09-30T02:52:30.253Z,6.53
2022-09-30T02:55:15.588Z,7.07
2022-09-30T02:57:56.714Z,9.20
2022-09-30T03:00:25.178Z,4.87
2022-09-30T03:03:00.396Z,6.07
2022-09-30T03:05:30.425Z,7.53
2022-09-30T03:07:58.558Z,6.67
2022-09-30T03:10:26.590Z,5.57
2022-09-30T03:13:21.348Z,6.80
2022-09-30T03:16:13.918Z,7.60
2022-09-30T03:19:14.698Z,4.97
2022-09-30T03:22:10.795Z,5.53
2022-09-30T03:25:01.331Z,5.43
2022-09-30T03:27:40.208Z,6.70
2022-09-30T03:30:15.251Z,5.83
2022-09-30T03:33:00.652Z,5.70
2022-09-30T03:35:37.656Z,6.37
2022-09-30T03:38:16.418Z,4.87
2022-09-30T03:40:54.343Z,6.17
2022-09-30T03:43:30.948Z,4.10
2022-09-30T03:46:08.112Z,6.10
2022-09-30T03:48:39.179Z,5.33
2022-09-30T03:51:09.804Z,6.60
2022-09-30T03:53:42.511Z,5.07
2022-09-30T03:56:10.643Z,7.83
2022-09-30T03:58:44.220Z,3.97
2022-09-30T04:01:21.294Z,5.77
2022-09-30T04:03:52.552Z,4.63
2022-09-30T04:06:22.444Z,4.80
2022-09-30T04:08:53.817Z,4.80
2022-09-30T04:11:21.966Z,4.60
2022-09-30T04:13:49.974Z,5.60
2022-09-30T04:16:18.347Z,6.20
2022-09-30T04:18:46.434Z,5.13
2022-09-30T04:21:15.927Z,5.80
2022-09-30T04:23:44.397Z,10.50
2022-09-30T04:26:17.249Z,9.73
2022-09-30T04:28:45.495Z,8.90
2022-09-30T04:31:17.064Z,8.97
2022-09-30T04:33:45.666Z,4.93
2022-09-30T04:36:13.676Z,4.87
2022-09-30T04:38:41.733Z,5.00
2022-09-30T04:41:16.150Z,4.23
2022-09-30T04:43:45.314Z,5.60
2022-09-30T04:46:13.528Z,6.10
2022-09-30T04:48:45.662Z,5.40
2022-09-30T04:51:14.018Z,6.47
2022-09-30T04:53:42.631Z,6.60
2022-09-30T04:56:11.521Z,7.33
2022-09-30T04:58:41.364Z,6.27
2022-09-30T05:01:12.027Z,6.77
2022-09-30T05:03:40.739Z,9.87
2022-09-30T05:06:09.094Z,10.17
2022-09-30T05:08:41.763Z,6.47
2022-09-30T05:11:18.439Z,9.33
2022-09-30T05:13:50.059Z,7.47
2022-09-30T05:16:19.229Z,7.07
2022-09-30T05:18:47.726Z,5.93
2022-09-30T05:21:19.509Z,8.37
2022-09-30T05:23:48.365Z,7.53
2022-09-30T05:26:16.871Z,5.80
2022-09-30T05:28:46.691Z,3.73
2022-09-30T05:31:14.821Z,6.33
2022-09-30T05:33:42.965Z,6.20
2022-09-30T05:36:16.500Z,10.27
2022-09-30T05:38:44.619Z,9.57
2022-09-30T05:41:14.864Z,6.93
2022-09-30T05:43:46.613Z,7.13
2022-09-30T05:46:16.575Z,6.10
2022-09-30T05:48:44.699Z,5.17
2022-09-30T05:51:12.933Z,7.73
2022-09-30T05:53:41.147Z,6.47
2022-09-30T05:56:11.018Z,5.40
2022-09-30T05:58:40.554Z,8.20
2022-09-30T06:01:13.798Z,6.83
2022-09-30T06:03:45.144Z,7.13
2022-09-30T06:06:13.973Z,10.13
2022-09-30T06:08:43.705Z,8.07
2022-09-30T06:11:14.483Z,9.03
2022-09-30T06:13:44.296Z,8.87
2022-09-30T06:16:13.952Z,9.13
2022-09-30T06:18:43.516Z,7.37
2022-09-30T06:21:15.313Z,8.03
2022-09-30T06:23:44.057Z,6.53
2022-09-30T06:26:14.232Z,7.03
2022-09-30T06:28:43.930Z,8.57
2022-09-30T06:31:12.569Z,8.63
2022-09-30T06:33:40.769Z,6.20
2022-09-30T06:36:10.467Z,8.73
2022-09-30T06:38:39.735Z,9.83
2022-09-30T06:41:09.686Z,5.30
2022-09-30T06:43:47.375Z,7.93
2022-09-30T06:46:27.477Z,8.20
2022-09-30T06:49:13.290Z,6.90
2022-09-30T06:51:43.321Z,7.97
2022-09-30T06:54:11.548Z,7.33
2022-09-30T06:56:39.578Z,10.73
2022-09-30T06:59:07.989Z,7.23
2022-09-30T07:01:36.215Z,8.13
2022-09-30T07:04:09.328Z,9.67
2022-09-30T07:06:38.844Z,7.90
2022-09-30T07:09:09.559Z,7.03
2022-09-30T07:11:38.844Z,8.57
2022-09-30T07:14:08.274Z,7.83
2022-09-30T07:16:36.464Z,8.83
2022-09-30T07:19:06.808Z,8.07
2022-09-30T07:21:35.071Z,10.03
2022-09-30T07:24:07.681Z,9.00
2022-09-30T07:26:37.063Z,9.93
2022-09-30T07:29:07.170Z,20.80
2022-09-30T07:31:36.021Z,13.47
2022-09-30T07:34:08.910Z,15.53
2022-09-30T07:36:39.069Z,13.63
2022-09-30T07:39:10.349Z,14.27
2022-09-30T07:41:41.183Z,13.33
2022-09-30T07:44:14.609Z,11.40
2022-09-30T07:46:43.613Z,9.27
2022-09-30T07:49:24.383Z,8.97
2022-09-30T07:51:55.316Z,9.73
2022-09-30T07:54:26.411Z,11.77
2022-09-30T07:57:12.313Z,9.53
2022-09-30T07:59:42.526Z,10.53
2022-09-30T08:02:17.382Z,11.40
2022-09-30T08:04:46.279Z,10.13
2022-09-30T08:07:17.782Z,10.70
2022-09-30T08:09:45.991Z,11.70
2022-09-30T08:12:15.702Z,10.90
2022-09-30T08:14:44.724Z,8.77
2022-09-30T08:17:12.769Z,12.03
2022-09-30T08:19:44.029Z,11.47
2022-09-30T08:22:13.800Z,10.53
2022-09-30T08:24:41.861Z,11.50
2022-09-30T08:27:09.936Z,10.17
2022-09-30T08:29:56.562Z,13.80
2022-09-30T08:32:25.717Z,10.87
2022-09-30T08:34:53.721Z,16.50
2022-09-30T08:37:22.047Z,14.07
2022-09-30T08:39:50.230Z,12.97
2022-09-30T08:42:49.105Z,12.63
2022-09-30T08:45:36.122Z,11.53
2022-09-30T08:48:22.383Z,11.23
2022-09-30T08:51:03.411Z,12.33
2022-09-30T08:53:36.207Z,11.13
2022-09-30T08:56:06.291Z,15.83
2022-09-30T08:58:38.708Z,14.77
2022-09-30T09:01:19.809Z,12.27
2022-09-30T09:03:48.405Z,11.83
2022-09-30T09:06:27.465Z,16.27
2022-09-30T09:09:29.935Z,11.13
2022-09-30T09:12:13.638Z,14.77
2022-09-30T09:14:57.037Z,13.37
2022-09-30T09:18:04.326Z,11.97
2022-09-30T09:20:36.564Z,12.63
2022-09-30T09:23:06.613Z,12.10
2022-09-30T09:25:35.354Z,12.93
2022-09-30T09:28:07.189Z,11.07
2022-09-30T09:30:43.446Z,9.70
2022-09-30T09:33:22.886Z,10.77
2022-09-30T09:35:58.897Z,13.80
2022-09-30T09:38:35.896Z,9.53
2022-09-30T09:41:18.306Z,9.90
2022-09-30T09:43:58.331Z,9.83
2022-09-30T09:46:30.178Z,13.50
2022-09-30T09:49:31.888Z,10.27
2022-09-30T09:52:40.132Z,11.90
2022-09-30T09:55:11.272Z,10.67
2022-09-30T09:57:40.250Z,8.80
2022-09-30T10:00:28.749Z,8.63
2022-09-30T10:03:03.742Z,7.50
2022-09-30T10:05:39.437Z,9.10
2022-09-30T10:08:16.105Z,9.80
2022-09-30T10:10:50.666Z,13.07
2022-09-30T10:13:24.822Z,9.23
2022-09-30T10:15:55.840Z,13.30
2022-09-30T10:18:30.869Z,9.33
2022-09-30T10:21:03.250Z,6.17
2022-09-30T10:23:34.015Z,8.57
2022-09-30T10:26:07.678Z,6.77
2022-09-30T10:28:47.155Z,6.43
2022-09-30T10:31:22.417Z,5.53
2022-09-30T10:34:04.173Z,5.00
2022-09-30T10:36:36.529Z,5.43
2022-09-30T10:39:09.695Z,7.10
2022-09-30T10:41:39.456Z,8.87
2022-09-30T10:44:16.564Z,7.13
2022-09-30T10:46:48.020Z,7.47
2022-09-30T10:49:28.536Z,8.63
2022-09-30T10:51:59.884Z,9.07
2022-09-30T10:54:48.268Z,10.10
2022-09-30T10:57:21.415Z,7.20
2022-09-30T10:59:50.192Z,5.67
2022-09-30T11:02:27.746Z,6.20
2022-09-30T11:05:08.282Z,4.90
2022-09-30T11:07:45.579Z,6.03
2022-09-30T11:10:34.954Z,11.37
2022-09-30T11:13:11.574Z,5.53
2022-09-30T11:15:49.696Z,6.20
2022-09-30T11:18:24.691Z,7.57
2022-09-30T11:20:58.912Z,8.47
2022-09-30T11:23:33.536Z,7.97
2022-09-30T11:26:10.435Z,7.30
2022-09-30T11:29:03.199Z,9.43
2022-09-30T11:31:37.833Z,5.47
2022-09-30T11:34:23.602Z,5.30
2022-09-30T11:37:02.075Z,6.13
2022-09-30T11:39:52.889Z,8.00
2022-09-30T11:42:28.837Z,7.03
2022-09-30T11:45:04.650Z,7.43
2022-09-30T11:47:53.525Z,8.47
2022-09-30T11:50:46.970Z,5.80
2022-09-30T11:53:29.029Z,6.80
2022-09-30T11:56:17.675Z,6.33
2022-09-30T11:58:51.443Z,5.70
2022-09-30T12:01:38.061Z,5.57
2022-09-30T12:04:11.152Z,6.00
2022-09-30T12:06:45.240Z,6.27
2022-09-30T12:09:23.332Z,5.53
2022-09-30T12:11:59.019Z,11.17
2022-09-30T12:14:34.893Z,6.00
2022-09-30T12:17:08.724Z,6.40
2022-09-30T12:19:44.826Z,5.83
2022-09-30T12:22:17.971Z,6.03
2022-09-30T12:24:46.661Z,5.47
2022-09-30T12:27:24.764Z,5.23
2022-09-30T12:30:20.296Z,5.13
2022-09-30T12:33:19.633Z,5.97
2022-09-30T12:36:22.235Z,6.77
2022-09-30T12:39:29.956Z,4.63
2022-09-30T12:42:33.226Z,4.40
2022-09-30T12:45:44.920Z,6.33
2022-09-30T12:48:17.739Z,5.40
2022-09-30T12:50:50.007Z,7.77
2022-09-30T12:53:24.955Z,4.80
2022-09-30T12:55:54.411Z,6.63
2022-09-30T12:58:31.073Z,5.67
2022-09-30T13:01:07.307Z,5.27
2022-09-30T13:03:52.737Z,5.10
2022-09-30T13:06:23.609Z,4.80
2022-09-30T13:09:20.670Z,7.60
2022-09-30T13:12:13.478Z,3.90
2022-09-30T13:14:44.199Z,3.77
2022-09-30T13:17:28.837Z,5.53
2022-09-30T13:19:58.586Z,6.23
2022-09-30T13:22:44.603Z,4.67
2022-09-30T13:25:15.600Z,5.73
2022-09-30T13:27:47.154Z,4.83
2022-09-30T13:30:42.657Z,4.90
2022-09-30T13:33:45.890Z,5.60
2022-09-30T13:36:33.190Z,7.07
2022-09-30T13:39:20.761Z,4.77
2022-09-30T13:42:15.478Z,4.43
2022-09-30T13:45:00.458Z,4.10
2022-09-30T13:47:37.039Z,4.10
2022-09-30T13:50:16.017Z,3.93
2022-09-30T13:52:46.668Z,3.63
2022-09-30T13:55:22.425Z,4.90
2022-09-30T13:58:07.066Z,6.47
2022-09-30T14:00:55.347Z,5.53
2022-09-30T14:03:55.974Z,4.90
2022-09-30T14:06:37.450Z,4.07
2022-09-30T14:09:38.087Z,5.60
2022-09-30T14:12:24.420Z,4.43
2022-09-30T14:15:40.235Z,3.73
2022-09-30T14:18:46.369Z,5.70
2022-09-30T14:21:33.988Z,4.33
2022-09-30T14:24:10.514Z,3.77
2022-09-30T14:27:10.842Z,3.30
2022-09-30T14:29:50.640Z,3.90
2022-09-30T14:32:22.107Z,4.10
2022-09-30T14:34:52.055Z,5.63
2022-09-30T14:37:29.806Z,5.43
2022-09-30T14:39:58.603Z,5.40
2022-09-30T14:42:39.911Z,5.27
2022-09-30T14:45:09.427Z,3.67
2022-09-30T14:47:45.394Z,3.37
2022-09-30T14:50:19.574Z,5.73
2022-09-30T14:52:55.737Z,4.03
2022-09-30T14:55:30.318Z,4.67
2022-09-30T14:58:22.786Z,4.27
2022-09-30T15:01:03.046Z,5.23
2022-09-30T15:03:34.120Z,4.07
2022-09-30T15:06:02.409Z,6.77
2022-09-30T15:08:31.914Z,6.50
2022-09-30T15:11:00.271Z,4.50
2022-09-30T15:13:31.846Z,4.93
2022-09-30T15:16:00.296Z,3.93
2022-09-30T15:18:36.310Z,5.03
2022-09-30T15:21:12.255Z,4.20
2022-09-30T15:23:47.104Z,4.33
2022-09-30T15:26:16.641Z,5.37
2022-09-30T15:28:44.686Z,3.73
2022-09-30T15:31:24.709Z,4.43
2022-09-30T15:34:07.130Z,4.57
2022-09-30T15:36:38.568Z,4.23
2022-09-30T15:39:19.412Z,4.53
2022-09-30T15:41:48.613Z,3.83
2022-09-30T15:44:20.786Z,3.87
2022-09-30T15:47:07.378Z,3.77
2022-09-30T15:49:49.674Z,4.27
2022-09-30T15:52:41.066Z,3.47
2022-09-30T15:55:43.212Z,5.07
2022-09-30T15:58:38.631Z,3.87
2022-09-30T16:01:26.769Z,3.47
2022-09-30T16:03:58.525Z,3.73
2022-09-30T16:06:32.271Z,4.03
2022-09-30T16:09:03.297Z,3.53
2022-09-30T16:11:36.770Z,4.67
2022-09-30T16:14:09.629Z,2.37
2022-09-30T16:16:39.496Z,4.63
2022-09-30T16:19:16.773Z,9.77
2022-09-30T16:21:50.597Z,22.57
2022-09-30T16:24:49.325Z,15.60
2022-09-30T16:27:29.086Z,11.60
2022-09-30T16:29:58.863Z,7.07
2022-09-30T16:32:39.823Z,6.40
2022-09-30T16:35:16.648Z,6.67
2022-09-30T16:37:45.611Z,6.73
2022-09-30T16:40:24.254Z,3.33
2022-09-30T16:42:55.706Z,5.17
2022-09-30T16:45:24.072Z,4.73
2022-09-30T16:47:52.564Z,5.93
2022-09-30T16:50:34.364Z,7.67
2022-09-30T16:53:02.438Z,3.37
2022-09-30T16:55:31.548Z,8.20
2022-09-30T16:58:00.994Z,4.10
2022-09-30T17:00:30.073Z,3.07
2022-09-30T17:02:58.267Z,6.27
2022-09-30T17:05:27.717Z,5.93
2022-09-30T17:07:57.600Z,5.37
2022-09-30T17:10:28.967Z,4.60
2022-09-30T17:12:57.979Z,8.53
2022-09-30T17:15:29.284Z,4.27
2022-09-30T17:17:57.967Z,4.60
2022-09-30T17:20:27.375Z,3.77
2022-09-30T17:22:55.365Z,3.67
2022-09-30T17:25:23.667Z,3.37
2022-09-30T17:27:51.768Z,5.27
2022-09-30T17:30:21.321Z,6.83
2022-09-30T17:32:50.727Z,7.67
2022-09-30T17:35:18.979Z,9.37
2022-09-30T17:37:47.787Z,15.00
2022-09-30T17:40:33.979Z,9.23
2022-09-30T17:43:08.437Z,8.70
2022-09-30T17:45:37.344Z,6.63
2022-09-30T17:48:07.733Z,8.20
2022-09-30T17:50:36.495Z,14.43
2022-09-30T17:53:05.865Z,14.67
2022-09-30T17:55:34.634Z,22.97
2022-09-30T17:58:03.324Z,16.00
2022-09-30T18:00:32.274Z,9.80
2022-09-30T18:03:00.787Z,7.33
2022-09-30T18:05:30.651Z,5.90
2022-09-30T18:07:58.910Z,5.80
2022-09-30T18:10:28.047Z,7.50
2022-09-30T18:12:56.617Z,8.33
2022-09-30T18:15:26.964Z,7.30
2022-09-30T18:17:55.007Z,6.87
2022-09-30T18:20:24.922Z,6.30
2022-09-30T18:22:55.079Z,5.27
2022-09-30T18:25:23.621Z,6.20
2022-09-30T18:27:56.078Z,2.83
2022-09-30T18:30:25.188Z,5.13
2022-09-30T18:32:54.906Z,11.37
2022-09-30T18:35:25.422Z,7.33
2022-09-30T18:37:54.877Z,18.17
2022-09-30T18:40:26.699Z,11.00
2022-09-30T18:42:58.322Z,5.93
2022-09-30T18:45:26.761Z,12.63
2022-09-30T18:47:57.399Z,26.50
2022-09-30T18:50:28.558Z,35.63
2022-09-30T18:52:58.891Z,23.80
2022-09-30T18:55:27.967Z,24.73
2022-09-30T18:57:57.197Z,14.87
2022-09-30T19:00:26.997Z,10.37
2022-09-30T19:02:55.050Z,6.87
2022-09-30T19:05:23.666Z,11.50
2022-09-30T19:07:53.582Z,6.07
2022-09-30T19:10:24.310Z,4.60
2022-09-30T19:12:52.515Z,6.90
2022-09-30T19:15:22.786Z,7.73
2022-09-30T19:17:53.557Z,7.20
2022-09-30T19:20:21.768Z,8.03
2022-09-30T19:22:51.775Z,10.23
2022-09-30T19:25:21.975Z,12.70
2022-09-30T19:27:52.940Z,10.43
2022-09-30T19:30:22.088Z,7.50
2022-09-30T19:32:56.458Z,5.13
2022-09-30T19:35:37.242Z,4.73
2022-09-30T19:38:07.765Z,5.47
2022-09-30T19:40:38.041Z,7.07
2022-09-30T19:43:08.139Z,8.47
2022-09-30T19:45:36.709Z,5.73
2022-09-30T19:48:05.008Z,5.30
2022-09-30T19:50:35.735Z,6.90
2022-09-30T19:53:03.912Z,13.83
2022-09-30T19:55:42.060Z,9.60
2022-09-30T19:58:15.070Z,7.77
2022-09-30T20:00:43.176Z,7.23
2022-09-30T20:03:13.807Z,5.57
2022-09-30T20:05:44.081Z,4.97
2022-09-30T20:08:12.373Z,7.13
2022-09-30T20:10:40.447Z,8.33
2022-09-30T20:13:08.580Z,8.23
2022-09-30T20:15:52.972Z,5.73
2022-09-30T20:18:21.212Z,5.90
2022-09-30T20:20:50.003Z,6.70
2022-09-30T20:23:19.228Z,4.87
2022-09-30T20:25:47.274Z,7.97
2022-09-30T20:28:16.869Z,5.97
2022-09-30T20:30:46.767Z,9.87
2022-09-30T20:33:17.624Z,5.07
2022-09-30T20:35:46.158Z,8.60
2022-09-30T20:38:17.195Z,6.20
2022-09-30T20:40:45.623Z,7.27
2022-09-30T20:43:13.783Z,8.43
2022-09-30T20:45:42.235Z,6.77
2022-09-30T20:48:11.635Z,5.73
2022-09-30T20:50:43.379Z,6.23
2022-09-30T20:53:13.768Z,5.80
2022-09-30T20:55:44.335Z,6.97
2022-09-30T20:58:14.114Z,7.27
2022-09-30T21:00:43.017Z,9.07
2022-09-30T21:03:15.023Z,5.83
2022-09-30T21:05:51.586Z,7.83
2022-09-30T21:08:19.606Z,7.60
2022-09-30T21:10:47.637Z,9.97
2022-09-30T21:13:15.925Z,6.10
2022-09-30T21:15:43.963Z,7.80
2022-09-30T21:18:13.328Z,6.50
2022-09-30T21:20:41.330Z,18.13
2022-09-30T21:23:09.309Z,11.43
2022-09-30T21:25:37.318Z,8.17
2022-09-30T21:28:05.441Z,7.50
2022-09-30T21:30:33.479Z,5.87
2022-09-30T21:33:01.516Z,6.37
2022-09-30T21:35:30.890Z,10.57
2022-09-30T21:37:58.900Z,7.40
2022-09-30T21:40:28.858Z,7.00
2022-09-30T21:42:57.239Z,6.93
2022-09-30T21:45:26.649Z,8.93
2022-09-30T21:48:02.368Z,7.93
2022-09-30T21:50:32.111Z,7.40
2022-09-30T21:53:00.255Z,10.43
2022-09-30T21:55:28.957Z,6.00
2022-09-30T21:57:56.971Z,8.87
2022-09-30T22:00:25.879Z,5.40
2022-09-30T22:02:54.125Z,7.50
2022-09-30T22:05:22.179Z,7.07
2022-09-30T22:07:51.762Z,7.87
2022-09-30T22:10:19.837Z,7.07
2022-09-30T22:12:48.622Z,7.83
2022-09-30T22:15:16.834Z,7.30
2022-09-30T22:17:44.934Z,9.77
2022-09-30T22:20:13.043Z,6.20
2022-09-30T22:22:41.482Z,7.13
2022-09-30T22:25:11.235Z,6.30
2022-09-30T22:27:39.292Z,6.30
2022-09-30T22:30:09.498Z,5.27
2022-09-30T22:32:37.524Z,5.77
2022-09-30T22:35:24.566Z,7.07
2022-09-30T22:38:10.208Z,6.53
2022-09-30T22:40:39.633Z,5.63
2022-09-30T22:43:07.736Z,5.27
2022-09-30T22:45:35.938Z,8.73
2022-09-30T22:48:04.509Z,8.03
2022-09-30T22:50:35.781Z,6.80
2022-09-30T22:53:04.683Z,7.33
2022-09-30T22:55:33.222Z,6.70
2022-09-30T22:58:02.689Z,7.47
2022-09-30T23:00:31.418Z,5.60
2022-09-30T23:02:59.501Z,5.70
2022-09-30T23:05:27.603Z,8.83
2022-09-30T23:07:55.682Z,7.67
2022-09-30T23:10:24.145Z,6.73
2022-09-30T23:12:53.362Z,6.40
2022-09-30T23:15:22.728Z,5.47
2022-09-30T23:17:50.747Z,4.90
2022-09-30T23:20:18.778Z,4.87
2022-09-30T23:22:46.977Z,5.13
2022-09-30T23:25:15.173Z,7.17
2022-09-30T23:27:47.703Z,6.83
2022-09-30T23:30:15.988Z,5.80
2022-09-30T23:32:45.416Z,4.97
2022-09-30T23:35:14.049Z,5.07
2022-09-30T23:37:42.107Z,6.67
2022-09-30T23:40:11.089Z,11.10
2022-09-30T23:42:39.130Z,6.77
2022-09-30T23:45:08.629Z,7.47
2022-09-30T23:47:37.324Z,6.47
2022-09-30T23:50:08.263Z,9.60
2022-09-30T23:52:36.563Z,5.13
2022-09-30T23:55:04.914Z,5.43
2022-09-30T23:57:33.075Z,6.37
